createdAt,value
2023-06-10T00:02:12.533Z,95892.28
2023-06-10T00:04:38.967Z,95900.91
2023-06-10T00:07:05.350Z,95898.91
2023-06-10T00:09:31.704Z,95896.16
2023-06-10T00:11:58.105Z,95890.19
2023-06-10T00:14:24.441Z,95895.34
2023-06-10T00:16:50.866Z,95904.09
2023-06-10T00:19:17.258Z,95905.59
2023-06-10T00:21:43.612Z,95900.31
2023-06-10T00:24:10.038Z,95898.00
2023-06-10T00:26:36.398Z,95905.28
2023-06-10T00:29:02.742Z,95895.25
2023-06-10T00:31:29.107Z,95903.94
2023-06-10T00:33:55.490Z,95895.22
2023-06-10T00:36:21.843Z,95902.19
2023-06-10T00:38:48.196Z,95894.09
2023-06-10T00:41:14.554Z,95894.31
2023-06-10T00:43:40.898Z,95900.31
2023-06-10T00:46:07.283Z,95890.50
2023-06-10T00:48:33.716Z,95891.72
2023-06-10T00:51:00.061Z,95898.44
2023-06-10T00:53:26.410Z,95900.53
2023-06-10T00:55:52.799Z,95902.06
2023-06-10T00:58:19.151Z,95892.00
2023-06-10T01:00:45.506Z,95896.66
2023-06-10T01:03:12.008Z,95904.91
2023-06-10T01:05:38.397Z,95901.63
2023-06-10T01:08:04.752Z,95903.75
2023-06-10T01:10:31.134Z,95905.59
2023-06-10T01:12:57.489Z,95899.31
2023-06-10T01:15:23.849Z,95906.56
2023-06-10T01:17:50.467Z,95904.72
2023-06-10T01:20:16.824Z,95905.13
2023-06-10T01:22:43.171Z,95911.94
2023-06-10T01:25:09.849Z,95902.81
2023-06-10T01:27:36.368Z,95900.72
2023-06-10T01:30:02.712Z,95911.84
2023-06-10T01:32:29.107Z,95911.94
2023-06-10T01:34:55.501Z,95908.91
2023-06-10T01:37:21.834Z,95911.25
2023-06-10T01:39:48.449Z,95916.31
2023-06-10T01:42:14.793Z,95907.25
2023-06-10T01:44:41.144Z,95910.91
2023-06-10T01:47:07.553Z,95906.78
2023-06-10T01:49:33.909Z,95910.41
2023-06-10T01:52:00.270Z,95907.56
2023-06-10T01:54:26.647Z,95904.53
2023-06-10T01:56:52.991Z,95905.53
2023-06-10T01:59:19.334Z,95909.22
2023-06-10T02:01:45.946Z,95909.47
2023-06-10T02:04:12.282Z,95905.69
2023-06-10T02:06:38.626Z,95904.63
2023-06-10T02:09:04.985Z,95918.41
2023-06-10T02:11:31.329Z,95899.88
2023-06-10T02:13:57.654Z,95904.22
2023-06-10T02:16:24.069Z,95900.69
2023-06-10T02:18:50.471Z,95902.88
2023-06-10T02:21:16.827Z,95905.06
2023-06-10T02:23:43.279Z,95904.25
2023-06-10T02:26:09.691Z,95905.13
2023-06-10T02:28:36.135Z,95900.50
2023-06-10T02:31:02.510Z,95903.03
2023-06-10T02:33:28.877Z,95904.84
2023-06-10T02:35:55.237Z,95914.34
2023-06-10T02:38:21.615Z,95914.03
2023-06-10T02:40:47.964Z,95907.41
2023-06-10T02:43:14.311Z,95905.34
2023-06-10T02:45:40.677Z,95905.91
2023-06-10T02:48:07.050Z,95908.59
2023-06-10T02:50:33.397Z,95906.72
2023-06-10T02:52:59.771Z,95900.44
2023-06-10T02:55:26.101Z,95903.66
2023-06-10T02:57:52.441Z,95902.16
2023-06-10T03:00:18.887Z,95902.00
2023-06-10T03:02:45.397Z,95900.13
2023-06-10T03:05:12.353Z,95909.81
2023-06-10T03:07:38.962Z,95905.13
2023-06-10T03:10:05.336Z,95910.84
2023-06-10T03:12:31.681Z,95906.38
2023-06-10T03:14:58.065Z,95912.34
2023-06-10T03:17:24.523Z,95903.28
2023-06-10T03:19:51.002Z,95909.72
2023-06-10T03:22:17.394Z,95917.28
2023-06-10T03:24:43.741Z,95912.75
2023-06-10T03:27:10.077Z,95912.22
2023-06-10T03:29:36.486Z,95907.97
2023-06-10T03:32:02.831Z,95909.59
2023-06-10T03:34:29.176Z,95912.22
2023-06-10T03:36:55.531Z,95914.84
2023-06-10T03:39:21.866Z,95918.84
2023-06-10T03:41:48.211Z,95925.22
2023-06-10T03:44:14.564Z,95924.75
2023-06-10T03:46:40.889Z,95928.88
2023-06-10T03:49:07.257Z,95931.69
2023-06-10T03:51:33.627Z,95926.91
2023-06-10T03:53:59.983Z,95937.28
2023-06-10T03:56:26.334Z,95936.22
2023-06-10T03:58:52.798Z,95937.28
2023-06-10T04:01:20.255Z,95940.56
2023-06-10T04:03:46.590Z,95939.91
2023-06-10T04:06:13.010Z,95950.72
2023-06-10T04:08:39.479Z,95948.25
2023-06-10T04:11:05.833Z,95949.91
2023-06-10T04:13:32.204Z,95951.31
2023-06-10T04:15:58.571Z,95959.94
2023-06-10T04:18:24.956Z,95957.47
2023-06-10T04:20:51.336Z,95954.56
2023-06-10T04:23:17.686Z,95955.22
2023-06-10T04:25:44.048Z,95956.19
2023-06-10T04:28:10.431Z,95950.00
2023-06-10T04:30:36.795Z,95948.44
2023-06-10T04:33:03.183Z,95956.09
2023-06-10T04:35:29.651Z,95956.31
2023-06-10T04:37:56.000Z,95964.66
2023-06-10T04:40:22.345Z,95966.38
2023-06-10T04:42:48.703Z,95964.22
2023-06-10T04:45:15.051Z,95968.75
2023-06-10T04:47:41.644Z,95963.09
2023-06-10T04:50:08.058Z,95964.56
2023-06-10T04:52:34.399Z,95969.63
2023-06-10T04:55:00.743Z,95967.78
2023-06-10T04:57:27.237Z,95969.63
2023-06-10T04:59:53.629Z,95976.94
2023-06-10T05:02:20.071Z,95972.75
2023-06-10T05:04:46.500Z,95973.09
2023-06-10T05:07:12.840Z,95977.84
2023-06-10T05:09:39.179Z,95982.06
2023-06-10T05:12:05.539Z,95975.72
2023-06-10T05:14:31.883Z,95981.50
2023-06-10T05:16:58.232Z,95977.75
2023-06-10T05:19:24.590Z,95980.06
2023-06-10T05:21:50.950Z,95976.28
2023-06-10T05:24:17.465Z,95985.09
2023-06-10T05:26:44.042Z,95987.34
2023-06-10T05:29:10.400Z,95984.88
2023-06-10T05:31:36.904Z,95984.25
2023-06-10T05:34:03.328Z,95986.06
2023-06-10T05:36:29.679Z,95985.66
2023-06-10T05:38:56.025Z,95983.03
2023-06-10T05:41:22.435Z,95995.81
2023-06-10T05:43:48.826Z,95981.06
2023-06-10T05:46:15.272Z,95983.97
2023-06-10T05:48:41.687Z,95991.16
2023-06-10T05:51:08.044Z,95981.34
2023-06-10T05:53:34.394Z,95980.50
2023-06-10T05:56:00.808Z,95982.78
2023-06-10T05:58:27.150Z,95983.03
2023-06-10T06:00:53.515Z,95985.25
2023-06-10T06:03:20.046Z,95979.38
2023-06-10T06:05:46.524Z,95984.59
2023-06-10T06:08:12.872Z,95985.59
2023-06-10T06:10:39.268Z,95988.06
2023-06-10T06:13:05.603Z,95984.66
2023-06-10T06:15:31.942Z,95985.44
2023-06-10T06:17:58.318Z,95994.19
2023-06-10T06:20:24.714Z,95988.78
2023-06-10T06:22:51.123Z,95999.75
2023-06-10T06:25:17.561Z,95992.91
2023-06-10T06:27:43.960Z,95989.13
2023-06-10T06:30:10.326Z,95993.56
2023-06-10T06:32:36.778Z,95993.91
2023-06-10T06:35:03.132Z,95991.28
2023-06-10T06:37:29.504Z,95993.34
2023-06-10T06:39:55.924Z,95999.28
2023-06-10T06:42:22.286Z,95998.63
2023-06-10T06:44:48.631Z,95997.78
2023-06-10T06:47:15.171Z,95997.59
2023-06-10T06:49:41.551Z,95998.38
2023-06-10T06:52:07.908Z,95992.56
2023-06-10T06:54:34.277Z,96000.97
2023-06-10T06:57:00.645Z,96004.78
2023-06-10T06:59:26.990Z,96010.06
2023-06-10T07:01:53.385Z,96006.16
2023-06-10T07:04:19.799Z,96011.16
2023-06-10T07:06:46.155Z,96006.63
2023-06-10T07:09:12.527Z,96012.41
2023-06-10T07:11:38.876Z,96014.19
2023-06-10T07:14:05.238Z,96014.00
2023-06-10T07:16:31.683Z,96014.28
2023-06-10T07:18:58.073Z,96013.56
2023-06-10T07:21:24.435Z,96017.72
2023-06-10T07:23:50.812Z,96016.50
2023-06-10T07:26:17.200Z,96017.28
2023-06-10T07:28:43.679Z,96020.72
2023-06-10T07:31:10.104Z,96025.16
2023-06-10T07:33:36.446Z,96033.53
2023-06-10T07:36:02.807Z,96021.38
2023-06-10T07:38:29.260Z,96025.31
2023-06-10T07:40:55.604Z,96025.44
2023-06-10T07:43:21.993Z,96026.50
2023-06-10T07:45:48.358Z,96026.91
2023-06-10T07:48:14.694Z,96025.09
2023-06-10T07:50:41.048Z,96032.13
2023-06-10T07:53:07.470Z,96028.44
2023-06-10T07:55:34.043Z,96027.44
2023-06-10T07:58:00.435Z,96027.22
2023-06-10T08:00:26.810Z,96035.84
2023-06-10T08:02:53.298Z,96030.63
2023-06-10T08:05:19.872Z,96026.72
2023-06-10T08:07:46.306Z,96033.94
2023-06-10T08:10:12.669Z,96034.31
2023-06-10T08:12:39.042Z,96039.41
2023-06-10T08:15:05.546Z,96039.50
2023-06-10T08:17:32.122Z,96037.78
2023-06-10T08:19:58.492Z,96033.75
2023-06-10T08:22:24.874Z,96034.44
2023-06-10T08:27:17.638Z,96037.44
2023-06-10T08:29:44.062Z,96037.19
2023-06-10T08:32:10.431Z,96038.50
2023-06-10T08:34:36.809Z,96028.72
2023-06-10T08:37:03.173Z,96028.16
2023-06-10T08:39:29.529Z,96029.97
2023-06-10T08:41:55.870Z,96025.09
2023-06-10T08:44:22.236Z,96027.97
2023-06-10T08:46:48.588Z,96022.44
2023-06-10T08:49:15.154Z,96031.81
2023-06-10T08:51:41.580Z,96020.56
2023-06-10T08:54:07.940Z,96029.22
2023-06-10T08:56:34.290Z,96031.47
2023-06-10T08:59:00.692Z,96029.38
2023-06-10T09:01:27.077Z,96027.00
2023-06-10T09:03:53.501Z,96030.22
2023-06-10T09:06:19.888Z,96030.91
2023-06-10T09:08:46.262Z,96029.72
2023-06-10T09:11:12.615Z,96034.03
2023-06-10T09:13:39.010Z,96029.16
2023-06-10T09:16:05.534Z,96029.97
2023-06-10T09:18:31.925Z,96025.47
2023-06-10T09:20:58.307Z,96026.09
2023-06-10T09:23:24.848Z,96024.00
2023-06-10T09:25:51.199Z,96024.69
2023-06-10T09:28:17.568Z,96020.28
2023-06-10T09:30:43.921Z,96022.19
2023-06-10T09:33:10.348Z,96028.47
2023-06-10T09:35:36.783Z,96024.56
2023-06-10T09:38:03.368Z,96017.25
2023-06-10T09:40:29.767Z,96015.22
2023-06-10T09:42:56.129Z,96012.69
2023-06-10T09:45:22.469Z,96016.38
2023-06-10T09:47:48.863Z,96014.22
2023-06-10T09:50:15.462Z,96013.25
2023-06-10T09:52:42.053Z,96011.66
2023-06-10T09:55:08.462Z,96013.22
2023-06-10T09:57:35.150Z,96005.19
2023-06-10T10:00:01.590Z,96012.69
2023-06-10T10:02:27.934Z,96014.41
2023-06-10T10:04:54.409Z,96008.28
2023-06-10T10:07:20.788Z,96010.38
2023-06-10T10:09:47.149Z,96010.94
2023-06-10T10:12:13.503Z,96007.00
2023-06-10T10:14:39.836Z,96002.59
2023-06-10T10:17:06.290Z,96006.44
2023-06-10T10:19:32.780Z,96004.34
2023-06-10T10:21:59.124Z,95996.44
2023-06-10T10:24:25.533Z,96003.97
2023-06-10T10:26:51.984Z,96001.88
2023-06-10T10:29:18.358Z,96003.16
2023-06-10T10:31:44.703Z,96007.25
2023-06-10T10:34:11.171Z,96001.59
2023-06-10T10:36:37.653Z,96004.44
2023-06-10T10:39:04.002Z,96003.69
2023-06-10T10:41:30.351Z,95995.91
2023-06-10T10:43:56.739Z,95996.03
2023-06-10T10:46:23.271Z,95998.69
2023-06-10T10:48:49.671Z,96001.59
2023-06-10T10:51:16.009Z,95999.75
2023-06-10T10:53:42.413Z,95998.50
2023-06-10T10:56:08.812Z,95995.06
2023-06-10T10:58:35.169Z,96006.06
2023-06-10T11:01:01.598Z,95996.06
2023-06-10T11:03:28.285Z,95995.03
2023-06-10T11:05:54.783Z,95996.22
2023-06-10T11:08:21.164Z,95997.25
2023-06-10T11:10:47.618Z,95987.19
2023-06-10T11:13:13.970Z,95993.16
2023-06-10T11:15:40.318Z,95995.56
2023-06-10T11:18:06.768Z,96001.19
2023-06-10T11:20:33.287Z,95996.41
2023-06-10T11:22:59.688Z,96001.38
2023-06-10T11:25:26.072Z,95992.97
2023-06-10T11:27:52.442Z,95994.16
2023-06-10T11:30:18.828Z,95998.50
2023-06-10T11:32:45.301Z,95993.56
2023-06-10T11:35:12.145Z,95988.56
2023-06-10T11:37:38.696Z,95990.63
2023-06-10T11:40:05.103Z,95988.91
2023-06-10T11:42:31.457Z,95989.16
2023-06-10T11:44:57.818Z,95996.38
2023-06-10T11:47:24.217Z,95999.53
2023-06-10T11:49:52.051Z,95987.75
2023-06-10T11:52:18.496Z,95987.03
2023-06-10T11:54:44.845Z,95988.84
2023-06-10T11:57:11.211Z,95994.81
2023-06-10T11:59:37.545Z,95985.84
2023-06-10T12:02:03.895Z,95978.75
2023-06-10T12:04:30.244Z,95984.00
2023-06-10T12:06:56.568Z,95972.72
2023-06-10T12:09:25.872Z,95974.63
2023-06-10T12:11:53.025Z,95978.38
2023-06-10T12:14:19.918Z,95972.72
2023-06-10T12:16:46.300Z,95966.00
2023-06-10T12:19:12.643Z,95960.09
2023-06-10T12:21:39.013Z,95956.47
2023-06-10T12:24:05.418Z,95957.34
2023-06-10T12:26:31.855Z,95955.38
2023-06-10T12:28:58.196Z,95951.88
2023-06-10T12:31:24.593Z,95960.13
2023-06-10T12:33:50.951Z,95952.91
2023-06-10T12:36:17.312Z,95962.66
2023-06-10T12:38:43.693Z,95947.03
2023-06-10T12:41:10.035Z,95945.00
2023-06-10T12:43:36.391Z,95947.03
2023-06-10T12:46:02.794Z,95939.50
2023-06-10T12:48:31.111Z,95943.66
2023-06-10T12:50:57.679Z,95944.69
2023-06-10T12:53:24.089Z,95942.81
2023-06-10T12:55:50.458Z,95943.59
2023-06-10T12:58:16.818Z,95945.50
2023-06-10T13:00:43.180Z,95934.53
2023-06-10T13:03:09.578Z,95933.75
2023-06-10T13:05:35.947Z,95935.84
2023-06-10T13:08:02.322Z,95931.78
2023-06-10T13:10:28.671Z,95922.63
2023-06-10T13:12:55.018Z,95919.50
2023-06-10T13:15:21.378Z,95918.97
2023-06-10T13:17:47.732Z,95909.88
2023-06-10T13:20:14.091Z,95913.25
2023-06-10T13:22:40.491Z,95908.41
2023-06-10T13:25:06.839Z,95919.72
2023-06-10T13:27:33.194Z,95910.53
2023-06-10T13:29:59.571Z,95907.22
2023-06-10T13:32:25.969Z,95907.09
2023-06-10T13:34:52.360Z,95918.47
2023-06-10T13:37:18.727Z,95912.59
2023-06-10T13:39:45.071Z,95913.22
2023-06-10T13:42:11.420Z,95903.91
2023-06-10T13:44:37.814Z,95904.25
2023-06-10T13:47:04.304Z,95902.16
2023-06-10T13:49:30.809Z,95900.03
2023-06-10T13:51:57.297Z,95896.47
2023-06-10T13:54:23.646Z,95896.72
2023-06-10T13:56:49.999Z,95902.66
2023-06-10T13:59:16.364Z,95903.97
2023-06-10T14:01:42.773Z,95914.16
2023-06-10T14:04:09.247Z,95898.31
2023-06-10T14:06:35.672Z,95907.47
2023-06-10T14:09:02.020Z,95902.78
2023-06-10T14:11:28.357Z,95907.00
2023-06-10T14:13:54.719Z,95892.34
2023-06-10T14:16:21.086Z,95897.94
2023-06-10T14:18:47.436Z,95890.09
2023-06-10T14:21:13.798Z,95887.47
2023-06-10T14:23:40.160Z,95883.50
2023-06-10T14:26:06.540Z,95890.63
2023-06-10T14:28:32.947Z,95894.25
2023-06-10T14:30:59.297Z,95887.41
2023-06-10T14:33:25.691Z,95891.94
2023-06-10T14:35:52.082Z,95881.16
2023-06-10T14:38:18.433Z,95891.94
2023-06-10T14:40:44.799Z,95881.78
2023-06-10T14:43:11.157Z,95883.44
2023-06-10T14:45:37.513Z,95879.59
2023-06-10T14:48:03.922Z,95879.06
2023-06-10T14:50:30.341Z,95891.66
2023-06-10T14:52:56.700Z,95895.06
2023-06-10T14:55:23.044Z,95891.94
2023-06-10T14:57:49.430Z,95882.94
2023-06-10T15:00:15.789Z,95876.78
2023-06-10T15:02:42.199Z,95862.91
2023-06-10T15:05:08.863Z,95864.22
2023-06-10T15:07:35.427Z,95874.09
2023-06-10T15:10:01.793Z,95860.34
2023-06-10T15:12:28.207Z,95865.28
2023-06-10T15:14:54.563Z,95860.94
2023-06-10T15:17:20.917Z,95856.56
2023-06-10T15:19:47.316Z,95857.00
2023-06-10T15:22:13.667Z,95872.13
2023-06-10T15:24:40.011Z,95870.72
2023-06-10T15:27:06.371Z,95866.00
2023-06-10T15:29:32.719Z,95863.19
2023-06-10T15:31:59.079Z,95852.53
2023-06-10T15:34:25.505Z,95856.81
2023-06-10T15:36:51.841Z,95858.53
2023-06-10T15:39:18.175Z,95849.97
2023-06-10T15:41:44.546Z,95848.81
2023-06-10T15:44:10.891Z,95845.63
2023-06-10T15:46:37.335Z,95841.78
2023-06-10T15:49:03.865Z,95839.09
2023-06-10T15:51:30.266Z,95835.22
2023-06-10T15:53:56.605Z,95837.41
2023-06-10T15:56:22.970Z,95836.28
2023-06-10T15:58:49.364Z,95830.38
2023-06-10T16:01:15.751Z,95836.00
2023-06-10T16:03:42.276Z,95830.97
2023-06-10T16:06:08.666Z,95838.47
2023-06-10T16:08:35.004Z,95844.94
2023-06-10T16:11:01.393Z,95831.63
2023-06-10T16:13:27.740Z,95833.00
2023-06-10T16:15:54.097Z,95838.63
2023-06-10T16:18:20.551Z,95832.88
2023-06-10T16:20:46.906Z,95831.47
2023-06-10T16:23:13.251Z,95825.41
2023-06-10T16:25:40.291Z,95830.59
2023-06-10T16:28:06.871Z,95818.41
2023-06-10T16:30:33.200Z,95824.56
2023-06-10T16:32:59.624Z,95816.97
2023-06-10T16:35:26.009Z,95817.06
2023-06-10T16:37:52.365Z,95821.94
2023-06-10T16:40:18.800Z,95821.22
2023-06-10T16:42:45.141Z,95829.41
2023-06-10T16:45:11.710Z,95817.63
2023-06-10T16:47:38.455Z,95824.31
2023-06-10T16:50:04.805Z,95820.63
2023-06-10T16:52:31.143Z,95825.56
2023-06-10T16:54:57.507Z,95832.09
2023-06-10T16:57:23.874Z,95826.44
2023-06-10T16:59:50.231Z,95830.50
2023-06-10T17:02:16.590Z,95829.50
2023-06-10T17:04:42.937Z,95829.72
2023-06-10T17:07:09.285Z,95827.22
2023-06-10T17:09:35.646Z,95823.94
2023-06-10T17:12:01.998Z,95831.03
2023-06-10T17:14:28.346Z,95831.75
2023-06-10T17:16:54.737Z,95834.16
2023-06-10T17:19:21.089Z,95836.25
2023-06-10T17:21:47.443Z,95841.81
2023-06-10T17:24:13.832Z,95838.56
2023-06-10T17:26:40.220Z,95842.19
2023-06-10T17:29:06.568Z,95849.78
2023-06-10T17:31:32.971Z,95842.91
2023-06-10T17:33:59.326Z,95840.72
2023-06-10T17:36:25.690Z,95843.03
2023-06-10T17:38:52.118Z,95834.72
2023-06-10T17:41:18.499Z,95842.97
2023-06-10T17:43:45.452Z,95843.72
2023-06-10T17:46:12.089Z,95846.69
2023-06-10T17:48:38.478Z,95844.31
2023-06-10T17:51:04.833Z,95839.34
2023-06-10T17:53:31.218Z,95839.75
2023-06-10T17:55:59.570Z,95851.91
2023-06-10T17:58:28.134Z,95851.38
2023-06-10T18:00:54.495Z,95853.75
2023-06-10T18:03:20.924Z,95855.75
2023-06-10T18:05:47.342Z,95860.44
2023-06-10T18:08:13.722Z,95860.47
2023-06-10T18:10:40.079Z,95861.44
2023-06-10T18:13:06.432Z,95860.38
2023-06-10T18:15:35.166Z,95864.81
2023-06-10T18:18:03.229Z,95870.13
2023-06-10T18:20:29.619Z,95861.81
2023-06-10T18:22:55.990Z,95861.19
2023-06-10T18:25:22.371Z,95862.22
2023-06-10T18:27:48.724Z,95870.53
2023-06-10T18:30:15.091Z,95869.19
2023-06-10T18:32:41.481Z,95877.50
2023-06-10T18:35:08.021Z,95878.59
2023-06-10T18:37:34.522Z,95869.06
2023-06-10T18:40:00.879Z,95875.91
2023-06-10T18:42:27.234Z,95881.56
2023-06-10T18:44:53.597Z,95877.41
2023-06-10T18:47:19.964Z,95878.06
2023-06-10T18:49:46.335Z,95876.31
2023-06-10T18:52:12.782Z,95883.53
2023-06-10T18:54:39.160Z,95886.38
2023-06-10T18:57:05.558Z,95887.22
2023-06-10T18:59:31.956Z,95888.78
2023-06-10T19:01:58.363Z,95882.63
2023-06-10T19:04:24.733Z,95887.38
2023-06-10T19:06:51.105Z,95887.03
2023-06-10T19:09:17.457Z,95887.94
2023-06-10T19:11:43.795Z,95890.28
2023-06-10T19:14:10.165Z,95895.66
2023-06-10T19:16:36.518Z,95898.28
2023-06-10T19:19:02.856Z,95899.03
2023-06-10T19:21:29.218Z,95904.41
2023-06-10T19:23:55.642Z,95901.94
2023-06-10T19:26:22.004Z,95907.41
2023-06-10T19:28:48.459Z,95910.75
2023-06-10T19:31:14.824Z,95909.81
2023-06-10T19:33:41.624Z,95915.25
2023-06-10T19:36:07.979Z,95919.41
2023-06-10T19:38:34.338Z,95916.59
2023-06-10T19:41:00.673Z,95927.75
2023-06-10T19:43:27.023Z,95937.09
2023-06-10T19:45:53.382Z,95929.03
2023-06-10T19:48:19.788Z,95934.47
2023-06-10T19:50:46.179Z,95930.59
2023-06-10T19:53:12.588Z,95938.59
2023-06-10T19:55:39.048Z,95935.75
2023-06-10T19:58:05.447Z,95942.47
2023-06-10T20:00:31.784Z,95952.03
2023-06-10T20:02:58.275Z,95947.38
2023-06-10T20:05:24.667Z,95945.91
2023-06-10T20:07:51.053Z,95946.16
2023-06-10T20:10:17.404Z,95947.44
2023-06-10T20:12:43.779Z,95950.81
2023-06-10T20:15:10.316Z,95959.06
2023-06-10T20:17:36.946Z,95968.09
2023-06-10T20:20:03.372Z,95968.59
2023-06-10T20:22:29.728Z,95965.47
2023-06-10T20:24:56.126Z,95967.84
2023-06-10T20:27:22.625Z,95979.22
2023-06-10T20:29:49.029Z,95971.25
2023-06-10T20:32:15.442Z,95974.84
2023-06-10T20:34:41.876Z,95974.06
2023-06-10T20:37:08.218Z,95977.91
2023-06-10T20:39:34.582Z,95977.69
2023-06-10T20:42:00.985Z,95974.03
2023-06-10T20:44:27.342Z,95977.91
2023-06-10T20:46:53.680Z,95969.13
2023-06-10T20:49:20.041Z,95973.03
2023-06-10T20:51:46.388Z,95978.19
2023-06-10T20:54:12.767Z,95976.63
2023-06-10T20:56:39.176Z,95985.66
2023-06-10T20:59:05.530Z,95985.94
2023-06-10T21:01:31.940Z,95990.03
2023-06-10T21:03:58.408Z,95996.47
2023-06-10T21:06:24.783Z,95997.78
2023-06-10T21:08:54.266Z,95996.19
2023-06-10T21:11:20.633Z,96004.97
2023-06-10T21:13:46.971Z,96004.94
2023-06-10T21:16:13.395Z,96010.13
2023-06-10T21:18:39.819Z,96012.44
2023-06-10T21:21:06.177Z,95996.47
2023-06-10T21:23:32.581Z,96005.97
2023-06-10T21:25:58.976Z,96006.22
2023-06-10T21:28:25.315Z,96008.56
2023-06-10T21:30:51.655Z,96007.28
2023-06-10T21:33:18.053Z,96006.25
2023-06-10T21:35:44.395Z,95996.44
2023-06-10T21:38:10.749Z,96002.91
2023-06-10T21:40:37.127Z,96006.94
2023-06-10T21:43:03.479Z,96008.00
2023-06-10T21:45:29.821Z,96001.53
2023-06-10T21:47:56.244Z,95998.38
2023-06-10T21:50:22.623Z,96000.50
2023-06-10T21:52:48.974Z,96006.56
2023-06-10T21:55:15.546Z,95998.41
2023-06-10T21:57:42.034Z,95996.59
2023-06-10T22:00:08.435Z,95985.66
2023-06-10T22:02:34.857Z,95992.56
2023-06-10T22:05:01.222Z,95991.66
2023-06-10T22:07:27.556Z,95991.19
2023-06-10T22:09:53.954Z,95990.97
2023-06-10T22:12:20.309Z,95990.94
2023-06-10T22:14:46.707Z,95990.72
2023-06-10T22:17:13.234Z,95995.72
2023-06-10T22:19:39.841Z,95997.63
2023-06-10T22:22:06.243Z,95990.91
2023-06-10T22:24:32.607Z,95995.41
2023-06-10T22:26:58.977Z,95991.16
2023-06-10T22:29:25.342Z,95995.19
2023-06-10T22:31:51.705Z,95990.47
2023-06-10T22:34:18.055Z,95987.34
2023-06-10T22:36:44.411Z,95986.97
2023-06-10T22:39:10.782Z,95983.38
2023-06-10T22:41:37.113Z,95974.41
2023-06-10T22:44:03.462Z,95973.06
2023-06-10T22:46:29.839Z,95977.06
2023-06-10T22:48:56.270Z,95980.09
2023-06-10T22:51:22.642Z,95980.59
2023-06-10T22:53:49.019Z,95977.16
2023-06-10T22:56:15.382Z,95977.91
2023-06-10T22:58:41.781Z,95984.53
2023-06-10T23:01:08.170Z,95992.97
2023-06-10T23:03:34.540Z,95986.47
2023-06-10T23:06:00.920Z,95991.38
2023-06-10T23:08:27.283Z,95991.16
2023-06-10T23:10:53.621Z,95993.53
2023-06-10T23:13:19.985Z,95993.47
2023-06-10T23:15:46.427Z,95986.00
2023-06-10T23:18:12.829Z,95985.06
2023-06-10T23:20:39.202Z,95991.50
2023-06-10T23:23:05.556Z,95985.31
2023-06-10T23:25:31.902Z,95993.56
2023-06-10T23:27:58.256Z,95995.09
2023-06-10T23:30:24.659Z,95994.31
2023-06-10T23:32:51.120Z,95997.00
2023-06-10T23:35:18.930Z,95993.03
2023-06-10T23:37:45.362Z,95993.13
2023-06-10T23:40:11.702Z,96000.84
2023-06-10T23:42:38.063Z,95995.34
2023-06-10T23:45:04.419Z,96001.69
2023-06-10T23:47:31.965Z,95994.19
2023-06-10T23:49:58.316Z,95997.56
2023-06-10T23:52:24.694Z,96001.41
2023-06-10T23:54:51.025Z,96001.00
2023-06-10T23:57:17.380Z,95995.03
2023-06-10T23:59:43.739Z,96001.09
